Time;durP1;ratioP1;P1;durP2;ratioP2;P2;SDS_P1;SDS_P2;PMS_P1;PMS_P2;Temp;Humidity;BMP_temperature;BMP_pressure;BME280_temperature;BME280_humidity;BME280_pressure;Samples;Min_cycle;Max_cycle;Signal;HPM_P1;HPM_P2
2024/01/11 00:02:28;;;;;;;1999.90;999.90;;;;;;;-5.11;84.42;103179.38;10340832;28;20405;-65
2024/01/11 00:07:30;;;;;;;1999.90;999.90;;;;;;;-5.26;83.38;103174.44;10340703;28;20047;-65
2024/01/11 00:12:33;;;;;;;1999.90;999.90;;;;;;;-5.17;83.95;103162.91;10340785;28;20057;-65
2024/01/11 00:17:35;;;;;;;1999.90;999.90;;;;;;;-5.66;84.36;103175.13;10340197;28;20137;-65
2024/01/11 00:22:38;;;;;;;1999.90;999.90;;;;;;;-5.75;85.00;103176.34;10340000;28;20489;-65
2024/01/11 00:27:41;;;;;;;1999.90;999.90;;;;;;;-5.65;84.50;103178.53;10340064;28;20050;-65
2024/01/11 00:32:43;;;;;;;1999.90;999.90;;;;;;;-5.84;84.75;103172.56;10338741;28;20133;-65
2024/01/11 00:37:46;;;;;;;1999.90;999.90;;;;;;;-5.65;85.89;103176.88;10339811;28;20129;-65
2024/01/11 00:42:48;;;;;;;1999.90;999.90;;;;;;;-5.55;87.28;103177.31;10339456;28;20085;-65
2024/01/11 00:47:51;;;;;;;1999.90;999.90;;;;;;;-5.65;85.83;103179.44;10339096;28;20053;-65
2024/01/11 00:52:53;;;;;;;1999.90;999.90;;;;;;;-5.55;86.50;103185.81;10338499;28;20046;-66
2024/01/11 00:57:55;;;;;;;1999.90;999.90;;;;;;;-5.66;86.46;103181.91;10337880;28;20046;-65
2024/01/11 01:02:58;;;;;;;1999.90;999.90;;;;;;;-5.96;83.88;103176.25;10354177;28;20165;-65
2024/01/11 01:08:00;;;;;;;1999.90;999.90;;;;;;;-6.17;85.49;103184.56;10338558;28;20043;-65
2024/01/11 01:13:03;;;;;;;1999.90;999.90;;;;;;;-5.79;86.62;103180.44;10338217;28;20046;-65
2024/01/11 01:18:05;;;;;;;1999.90;999.90;;;;;;;-6.06;87.02;103193.63;10336901;28;20042;-65
2024/01/11 01:23:08;;;;;;;1999.90;999.90;;;;;;;-5.76;86.62;103198.47;10337913;28;20061;-65
2024/01/11 01:28:10;;;;;;;1999.90;999.90;;;;;;;-5.78;86.14;103190.72;10337782;28;20130;-65
2024/01/11 01:33:12;;;;;;;1999.90;999.90;;;;;;;-5.89;86.65;103179.13;10320276;28;20055;-65
2024/01/11 01:38:17;;;;;;;1999.90;999.90;;;;;;;-5.88;87.51;103178.31;10337368;28;20051;-65
2024/01/11 01:43:19;;;;;;;1999.90;999.90;;;;;;;-5.90;86.42;103177.38;10335959;28;20465;-65
2024/01/11 01:48:22;;;;;;;1999.90;999.90;;;;;;;-6.18;83.46;103185.38;10335742;28;20449;-65
2024/01/11 01:53:25;;;;;;;1999.90;999.90;;;;;;;-6.22;84.46;103201.31;10336700;28;20061;-66
2024/01/11 01:58:28;;;;;;;1999.90;999.90;;;;;;;-6.03;85.31;103198.03;10319671;28;20533;-65
2024/01/11 02:03:32;;;;;;;1999.90;999.90;;;;;;;-6.36;84.79;103206.56;10334774;28;20133;-65
2024/01/11 02:08:35;;;;;;;1999.90;999.90;;;;;;;-6.43;85.80;103212.16;10334995;28;20513;-66
2024/01/11 02:13:38;;;;;;;1999.90;999.90;;;;;;;-6.23;87.72;103212.31;10336142;28;20051;-65
2024/01/11 02:18:40;;;;;;;1999.90;999.90;;;;;;;-6.37;87.82;103212.50;10335700;28;20126;-65
2024/01/11 02:23:47;;;;;;;1999.90;999.90;;;;;;;-6.84;85.10;103210.91;10335392;28;20050;-65
2024/01/11 02:28:49;;;;;;;1999.90;999.90;;;;;;;-6.65;86.98;103214.41;10334175;28;20057;-65
2024/01/11 02:33:55;;;;;;;1999.90;999.90;;;;;;;-6.46;86.79;103211.13;10335145;28;20146;-65
2024/01/11 02:38:58;;;;;;;1999.90;999.90;;;;;;;-6.44;86.42;103217.19;10333856;28;20050;-65
2024/01/11 02:44:01;;;;;;;1999.90;999.90;;;;;;;-6.60;86.34;103218.06;10334796;28;20050;-65
2024/01/11 02:49:04;;;;;;;1999.90;999.90;;;;;;;-6.85;86.17;103223.56;10333411;28;20422;-65
2024/01/11 02:54:06;;;;;;;1999.90;999.90;;;;;;;-7.08;86.61;103219.75;10333260;28;20449;-65
2024/01/11 02:59:09;;;;;;;1999.90;999.90;;;;;;;-6.65;87.79;103207.63;10334190;28;20487;-65
2024/01/11 03:04:11;;;;;;;1999.90;999.90;;;;;;;-6.70;88.68;103206.53;10333040;28;20093;-65
2024/01/11 03:09:13;;;;;;;1999.90;999.90;;;;;;;-6.96;87.97;103192.41;10332888;28;20505;-65
2024/01/11 03:14:16;;;;;;;1999.90;999.90;;;;;;;-6.91;88.59;103184.22;10333020;28;20061;-65
2024/01/11 03:19:18;;;;;;;1999.90;999.90;;;;;;;-6.86;88.46;103181.91;10316535;28;20089;-65
2024/01/11 03:24:21;;;;;;;1999.90;999.90;;;;;;;-6.78;89.13;103198.47;10332729;28;20113;-65
2024/01/11 03:29:23;;;;;;;1999.90;999.90;;;;;;;-6.86;88.69;103193.75;10333769;28;20049;-65
2024/01/11 03:34:25;;;;;;;1999.90;999.90;;;;;;;-6.92;88.21;103197.75;10332386;28;20178;-65
2024/01/11 03:39:28;;;;;;;1999.90;999.90;;;;;;;-7.01;90.13;103225.28;10332414;28;20058;-65
2024/01/11 03:44:31;;;;;;;1999.90;999.90;;;;;;;-7.13;90.73;103232.22;10333232;28;20072;-65
2024/01/11 03:49:33;;;;;;;1999.90;999.90;;;;;;;-7.01;89.96;103232.91;10333525;28;20048;-65
2024/01/11 03:54:36;;;;;;;1999.90;999.90;;;;;;;-6.86;93.09;103227.75;10333328;28;20057;-65
2024/01/11 03:59:38;;;;;;;1999.90;999.90;;;;;;;-6.85;91.00;103226.09;10333098;28;20096;-65
2024/01/11 04:04:41;;;;;;;1999.90;999.90;;;;;;;-6.73;90.33;103230.16;10331990;28;20060;-65
2024/01/11 04:09:44;;;;;;;1999.90;999.90;;;;;;;-6.78;91.66;103220.53;10332869;28;20052;-65
2024/01/11 04:14:46;;;;;;;1999.90;999.90;;;;;;;-6.76;90.87;103204.53;10316206;28;20091;-65
2024/01/11 04:19:48;;;;;;;1999.90;999.90;;;;;;;-7.08;90.04;103214.66;10332741;28;20042;-65
2024/01/11 04:24:51;;;;;;;1999.90;999.90;;;;;;;-6.89;91.41;103235.25;10332580;28;20129;-65
2024/01/11 04:29:53;;;;;;;1999.90;999.90;;;;;;;-7.07;91.37;103241.91;10337056;28;20070;-65
2024/01/11 04:34:56;;;;;;;1999.90;999.90;;;;;;;-7.05;92.35;103245.41;10339665;28;20133;-65
2024/01/11 04:39:59;;;;;;;1999.90;999.90;;;;;;;-6.95;92.67;103257.84;10340181;28;20050;-65
2024/01/11 04:45:04;;;;;;;1999.90;999.90;;;;;;;-6.96;91.42;103259.50;10339350;28;20054;-65
2024/01/11 04:50:07;;;;;;;1999.90;999.90;;;;;;;-6.68;92.57;103268.63;10338252;28;20050;-65
2024/01/11 04:55:10;;;;;;;1999.90;999.90;;;;;;;-6.79;93.30;103275.72;10339060;28;20145;-65
2024/01/11 05:00:12;;;;;;;1999.90;999.90;;;;;;;-6.74;92.34;103268.28;10337935;28;20056;-65
2024/01/11 05:05:15;;;;;;;1999.90;999.90;;;;;;;-7.04;91.27;103270.94;10337715;28;20050;-65
2024/01/11 05:10:17;;;;;;;1999.90;999.90;;;;;;;-6.99;91.53;103266.09;10338351;28;20540;-65
2024/01/11 05:15:20;;;;;;;1999.90;999.90;;;;;;;-6.55;91.68;103253.19;10321258;28;20078;-65
2024/01/11 05:20:22;;;;;;;1999.90;999.90;;;;;;;-7.04;91.44;103265.84;10320942;28;20405;-65
2024/01/11 05:25:24;;;;;;;1999.90;999.90;;;;;;;-7.13;91.05;103278.06;10337988;28;20062;-65
2024/01/11 05:30:27;;;;;;;1999.90;999.90;;;;;;;-6.75;93.11;103264.88;10336583;28;20046;-65
2024/01/11 05:35:32;;;;;;;1999.90;999.90;;;;;;;-7.13;92.22;103250.97;10336847;28;20058;-65
2024/01/11 05:40:34;;;;;;;1999.90;999.90;;;;;;;-6.84;93.18;103261.84;10337509;28;20509;-65
2024/01/11 05:45:37;;;;;;;1999.90;999.90;;;;;;;-6.78;93.73;103262.16;10337011;28;20050;-65
2024/01/11 05:50:49;;;;;;;1999.90;999.90;;;;;;;-6.95;93.03;103261.25;10337036;28;20051;-65
2024/01/11 05:55:51;;;;;;;1999.90;999.90;;;;;;;-6.93;92.25;103264.75;10336301;28;20055;-65
2024/01/11 06:00:56;;;;;;;1999.90;999.90;;;;;;;-6.59;93.65;103252.94;10336470;28;20089;-66
2024/01/11 06:05:59;;;;;;;1999.90;999.90;;;;;;;-7.00;93.90;103246.53;10335032;28;20409;-65
2024/01/11 06:11:03;;;;;;;1999.90;999.90;;;;;;;-6.87;94.78;103271.88;10334729;28;20108;-65
2024/01/11 06:16:07;;;;;;;1999.90;999.90;;;;;;;-7.02;95.11;103268.50;10335816;28;20090;-65
2024/01/11 06:21:12;;;;;;;1999.90;999.90;;;;;;;-6.83;94.96;103278.00;10334467;28;20097;-65
2024/01/11 06:26:14;;;;;;;1999.90;999.90;;;;;;;-6.87;93.38;103274.41;10335293;28;20080;-65
2024/01/11 06:31:18;;;;;;;1999.90;999.90;;;;;;;-7.03;91.69;103282.88;10335211;28;20437;-65
2024/01/11 06:36:21;;;;;;;1999.90;999.90;;;;;;;-6.98;94.50;103322.19;10335018;28;20057;-65
2024/01/11 06:41:24;;;;;;;1999.90;999.90;;;;;;;-6.99;95.07;103352.69;10333711;28;20134;-65
2024/01/11 06:46:26;;;;;;;1999.90;999.90;;;;;;;-6.93;94.64;103342.84;10334734;28;20050;-65
2024/01/11 06:51:29;;;;;;;1999.90;999.90;;;;;;;-7.01;96.35;103324.59;10334323;28;20080;-65
2024/01/11 06:56:31;;;;;;;1999.90;999.90;;;;;;;-6.85;96.71;103331.41;10334456;28;20134;-65
2024/01/11 07:01:33;;;;;;;1999.90;999.90;;;;;;;-6.72;93.66;103338.94;10332871;28;20512;-65
2024/01/11 07:06:36;;;;;;;1999.90;999.90;;;;;;;-6.91;96.79;103338.69;10333960;28;20054;-65
2024/01/11 07:11:39;;;;;;;1999.90;999.90;;;;;;;-7.09;95.10;103336.03;10348536;22;20383;-64
2024/01/11 07:16:41;;;;;;;1999.90;999.90;;;;;;;-6.81;94.86;103350.28;10334068;28;20085;-62
2024/01/11 07:21:44;;;;;;;1999.90;999.90;;;;;;;-7.07;95.28;103361.59;10333757;28;20051;-62
2024/01/11 07:26:47;;;;;;;1999.90;999.90;;;;;;;-6.77;97.14;103352.22;10333832;28;20483;-62
2024/01/11 07:31:49;;;;;;;1999.90;999.90;;;;;;;-6.68;97.18;103339.97;10333568;28;20564;-63
2024/01/11 07:36:52;;;;;;;1999.90;999.90;;;;;;;-6.82;95.38;103333.25;10333790;28;20133;-63
2024/01/11 07:41:55;;;;;;;1999.90;999.90;;;;;;;-6.80;97.01;103329.13;10333345;28;20050;-63
2024/01/11 07:46:57;;;;;;;1999.90;999.90;;;;;;;-6.77;96.01;103316.56;10333337;28;20133;-63
2024/01/11 07:52:04;;;;;;;1999.90;999.90;;;;;;;-6.74;95.59;103325.25;10333325;28;20450;-63
2024/01/11 07:57:06;;;;;;;1999.90;999.90;;;;;;;-6.75;96.88;103333.66;10333156;28;20050;-63
2024/01/11 08:02:09;;;;;;;1999.90;999.90;;;;;;;-6.92;93.76;103332.75;10333745;28;20073;-63
2024/01/11 08:07:11;;;;;;;1999.90;999.90;;;;;;;-6.56;94.75;103316.81;10339262;28;20141;-62
2024/01/11 08:12:15;;;;;;;1999.90;999.90;;;;;;;-6.35;96.03;103324.75;10340655;28;20046;-62
2024/01/11 08:17:18;;;;;;;1999.90;999.90;;;;;;;-6.55;93.38;103319.47;10340454;28;20050;-62
2024/01/11 08:22:21;;;;;;;1999.90;999.90;;;;;;;-6.55;94.43;103338.97;10338917;28;20104;-62
2024/01/11 08:27:29;;;;;;;1999.90;999.90;;;;;;;-6.32;97.14;103350.41;10340563;28;20046;-63
2024/01/11 08:32:31;;;;;;;1999.90;999.90;;;;;;;-6.21;95.45;103330.56;10338501;28;20477;-63
2024/01/11 08:37:34;;;;;;;1999.90;999.90;;;;;;;-6.51;95.69;103324.72;10339816;28;20129;-63
2024/01/11 08:42:36;;;;;;;1999.90;999.90;;;;;;;-6.38;96.26;103340.75;10339426;28;20056;-63
2024/01/11 08:47:39;;;;;;;1999.90;999.90;;;;;;;-6.21;97.25;103354.38;10339128;28;20061;-63
2024/01/11 08:52:42;;;;;;;1999.90;999.90;;;;;;;-6.31;96.58;103370.00;10338184;28;20429;-62
2024/01/11 08:57:44;;;;;;;1999.90;999.90;;;;;;;-6.11;95.85;103375.28;10336920;28;20130;-62
2024/01/11 09:02:46;;;;;;;1999.90;999.90;;;;;;;-5.85;95.63;103380.06;10336918;28;20476;-63
2024/01/11 09:07:49;;;;;;;1999.90;999.90;;;;;;;-5.83;94.47;103377.59;10336966;28;20054;-63
2024/01/11 09:12:55;;;;;;;1999.90;999.90;;;;;;;-5.46;97.23;103379.47;10337235;28;20050;-63
2024/01/11 09:18:00;;;;;;;1999.90;999.90;;;;;;;-5.44;95.99;103400.84;10337852;28;20054;-63
2024/01/11 09:23:03;;;;;;;1999.90;999.90;;;;;;;-5.02;96.96;103400.34;10337699;28;20050;-63
2024/01/11 09:28:06;;;;;;;1999.90;999.90;;;;;;;-2.81;94.04;103387.06;10337893;28;20082;-63
2024/01/11 09:33:08;;;;;;;1999.90;999.90;;;;;;;2.17;80.67;103388.75;10337519;28;20046;-64
2024/01/11 09:38:11;;;;;;;1999.90;999.90;;;;;;;3.51;75.38;103380.59;10336335;28;20061;-64
2024/01/11 09:43:13;;;;;;;1999.90;999.90;;;;;;;3.81;70.72;103378.34;10336905;28;20449;-65
2024/01/11 09:48:16;;;;;;;1999.90;999.90;;;;;;;4.93;67.97;103384.66;10335684;28;20129;-65
2024/01/11 09:53:20;;;;;;;1999.90;999.90;;;;;;;1.82;71.32;103406.13;10335692;28;20108;-64
2024/01/11 09:58:24;;;;;;;1999.90;999.90;;;;;;;0.62;72.38;103426.53;10335031;28;20082;-64
2024/01/11 10:03:26;;;;;;;1999.90;999.90;;;;;;;0.01;75.36;103430.88;10336502;28;20046;-64
2024/01/11 10:08:30;;;;;;;1999.90;999.90;;;;;;;0.09;73.80;103435.41;10336032;28;20054;-64
2024/01/11 10:13:33;;;;;;;1999.90;999.90;;;;;;;-1.46;76.17;103445.91;10334873;28;20050;-64
2024/01/11 10:18:35;;;;;;;1999.90;999.90;;;;;;;-0.94;77.53;103446.00;10335579;28;20078;-64
2024/01/11 10:23:39;;;;;;;1999.90;999.90;;;;;;;-1.55;79.23;103429.34;10335590;28;20109;-64
2024/01/11 10:28:44;;;;;;;1999.90;999.90;;;;;;;-2.06;80.99;103431.81;10334547;28;20058;-64
2024/01/11 10:33:47;;;;;;;1999.90;999.90;;;;;;;-2.11;80.49;103416.22;10334096;28;20481;-64
2024/01/11 10:38:49;;;;;;;1999.90;999.90;;;;;;;-1.91;80.42;103421.22;10334520;28;20170;-64
2024/01/11 10:43:52;;;;;;;1999.90;999.90;;;;;;;-1.93;82.05;103441.72;10334794;28;20046;-64
2024/01/11 10:48:57;;;;;;;1999.90;999.90;;;;;;;-0.90;79.59;103426.41;10334925;28;20074;-64
2024/01/11 10:54:00;;;;;;;1999.90;999.90;;;;;;;-0.73;78.75;103411.50;10334687;28;20156;-64
2024/01/11 10:59:04;;;;;;;1999.90;999.90;;;;;;;-0.66;77.76;103418.59;10334694;28;20077;-64
2024/01/11 11:04:07;;;;;;;1999.90;999.90;;;;;;;-0.45;76.14;103420.09;10334372;28;20134;-64
2024/01/11 11:09:11;;;;;;;1999.90;999.90;;;;;;;-0.43;77.50;103426.16;10332847;28;20134;-64
2024/01/11 11:14:17;;;;;;;1999.90;999.90;;;;;;;-0.52;77.94;103434.47;10333305;28;20106;-64
2024/01/11 11:19:23;;;;;;;1999.90;999.90;;;;;;;1.54;73.74;103439.09;10333837;28;20525;-64
2024/01/11 11:24:26;;;;;;;1999.90;999.90;;;;;;;0.57;74.93;103452.19;10332877;28;20057;-64
2024/01/11 11:29:28;;;;;;;1999.90;999.90;;;;;;;-0.31;78.03;103456.56;10333799;28;20125;-64
2024/01/11 11:34:52;;;;;;;1999.90;999.90;;;;;;;-0.87;82.45;103459.94;10333565;28;20082;-64
2024/01/11 11:39:54;;;;;;;1999.90;999.90;;;;;;;-0.68;87.25;103463.13;10340524;28;20046;-64
2024/01/11 11:44:58;;;;;;;1999.90;999.90;;;;;;;-0.84;91.22;103454.00;10341786;28;20050;-64
2024/01/11 11:50:07;;;;;;;1999.90;999.90;;;;;;;-1.05;92.89;103443.91;10341516;28;20135;-64
2024/01/11 11:55:10;;;;;;;1999.90;999.90;;;;;;;-1.21;96.67;103437.34;10341222;28;20490;-64
2024/01/11 12:00:13;;;;;;;1999.90;999.90;;;;;;;-1.11;97.61;103439.41;10340045;28;20046;-65
2024/01/11 12:05:18;;;;;;;1999.90;999.90;;;;;;;-1.03;98.85;103435.41;10339789;28;20055;-65
2024/01/11 12:10:21;;;;;;;1999.90;999.90;;;;;;;-1.04;100.00;103437.91;10339710;28;20133;-64
2024/01/11 12:15:27;;;;;;;1999.90;999.90;;;;;;;-1.15;100.00;103425.59;10339266;28;20187;-64
2024/01/11 12:20:30;;;;;;;1999.90;999.90;;;;;;;-0.75;100.00;103402.88;10340440;28;20125;-64
2024/01/11 12:25:33;;;;;;;1999.90;999.90;;;;;;;-0.71;100.00;103402.13;10340086;28;20489;-65
2024/01/11 12:30:35;;;;;;;1999.90;999.90;;;;;;;-0.58;100.00;103399.09;10339997;28;20054;-64
2024/01/11 12:35:38;;;;;;;1999.90;999.90;;;;;;;-0.74;100.00;103399.44;10340030;28;20125;-64
2024/01/11 12:40:40;;;;;;;1999.90;999.90;;;;;;;-0.44;100.00;103403.81;10338285;28;20501;-65
2024/01/11 12:45:43;;;;;;;1999.90;999.90;;;;;;;-0.53;100.00;103403.53;10339707;28;20109;-64
2024/01/11 12:50:45;;;;;;;1999.90;999.90;;;;;;;-0.47;100.00;103403.72;10338471;28;20496;-64
2024/01/11 12:56:03;;;;;;;1999.90;999.90;;;;;;;-0.59;100.00;103407.69;10339508;28;20058;-64
2024/01/11 13:01:10;;;;;;;1999.90;999.90;;;;;;;-0.61;100.00;103399.00;10338961;28;20047;-64
2024/01/11 13:06:13;;;;;;;1999.90;999.90;;;;;;;-0.51;100.00;103394.16;10338635;28;20046;-65
2024/01/11 13:11:16;;;;;;;1999.90;999.90;;;;;;;-0.43;100.00;103379.81;10338423;28;20051;-64
2024/01/11 13:16:20;;;;;;;1999.90;999.90;;;;;;;-0.62;100.00;103375.84;10338542;28;20050;-64
2024/01/11 13:21:22;;;;;;;1999.90;999.90;;;;;;;-0.59;100.00;103379.38;10338115;28;20154;-65
2024/01/11 13:26:25;;;;;;;1999.90;999.90;;;;;;;-0.57;100.00;103362.28;10337965;28;20129;-64
2024/01/11 13:31:27;;;;;;;1999.90;999.90;;;;;;;-0.47;100.00;103363.41;10337660;28;20057;-64
2024/01/11 13:36:29;;;;;;;1999.90;999.90;;;;;;;-0.31;100.00;103353.56;10337503;28;20054;-65
2024/01/11 13:41:32;;;;;;;1999.90;999.90;;;;;;;-0.44;100.00;103367.78;10337612;28;20539;-64
2024/01/11 13:46:35;;;;;;;1999.90;999.90;;;;;;;-0.30;100.00;103355.28;10335962;28;20509;-65
2024/01/11 13:51:37;;;;;;;1999.90;999.90;;;;;;;-0.41;100.00;103357.56;10336836;28;20078;-65
2024/01/11 13:56:55;;;;;;;1999.90;999.90;;;;;;;-0.16;100.00;103354.00;10336731;28;20104;-64
2024/01/11 14:01:57;;;;;;;1999.90;999.90;;;;;;;0.12;100.00;103353.06;10335190;28;20046;-64
2024/01/11 14:07:00;;;;;;;1999.90;999.90;;;;;;;0.11;100.00;103347.88;10336270;28;20474;-64
2024/01/11 14:12:02;;;;;;;1999.90;999.90;;;;;;;-0.02;100.00;103344.97;10335998;28;20059;-64
2024/01/11 14:17:06;;;;;;;1999.90;999.90;;;;;;;-0.17;100.00;103341.94;10335832;28;20056;-64
2024/01/11 14:22:08;;;;;;;1999.90;999.90;;;;;;;-0.08;100.00;103347.38;10334511;28;20046;-65
2024/01/11 14:27:11;;;;;;;1999.90;999.90;;;;;;;0.04;100.00;103345.97;10335482;28;20132;-64
2024/01/11 14:32:15;;;;;;;1999.90;999.90;;;;;;;-0.26;100.00;103352.00;10335563;28;20043;-65
2024/01/11 14:37:36;;;;;;;1999.90;999.90;;;;;;;-0.17;100.00;103338.50;10335161;28;20065;-64
2024/01/11 14:42:39;;;;;;;1999.90;999.90;;;;;;;0.12;100.00;103329.03;10334846;28;20531;-65
2024/01/11 14:47:41;;;;;;;1999.90;999.90;;;;;;;0.18;100.00;103319.75;10333856;28;20108;-65
2024/01/11 14:52:44;;;;;;;1999.90;999.90;;;;;;;0.31;100.00;103323.50;10334619;28;20056;-65
2024/01/11 14:57:46;;;;;;;1999.90;999.90;;;;;;;0.07;100.00;103321.16;10335143;28;20073;-65
2024/01/11 15:02:49;;;;;;;1999.90;999.90;;;;;;;0.09;100.00;103319.50;10334349;28;20053;-65
2024/01/11 15:07:52;;;;;;;1999.90;999.90;;;;;;;0.30;100.00;103321.78;10334123;28;20084;-69
2024/01/11 15:12:54;;;;;;;1999.90;999.90;;;;;;;0.21;100.00;103308.63;10334064;28;20057;-68
2024/01/11 15:17:56;;;;;;;1999.90;999.90;;;;;;;0.16;100.00;103300.78;10333685;28;20550;-68
2024/01/11 15:22:59;;;;;;;1999.90;999.90;;;;;;;0.06;100.00;103319.41;10333809;28;20081;-63
2024/01/11 15:28:02;;;;;;;1999.90;999.90;;;;;;;0.24;100.00;103315.59;10332556;28;20060;-63
2024/01/11 15:33:04;;;;;;;1999.90;999.90;;;;;;;0.45;100.00;103300.63;10333745;28;20081;-63
2024/01/11 15:38:07;;;;;;;1999.90;999.90;;;;;;;0.20;100.00;103293.13;10333627;28;20506;-63
2024/01/11 15:43:09;;;;;;;1999.90;999.90;;;;;;;0.12;100.00;103301.53;10333608;28;20046;-63
2024/01/11 15:48:11;;;;;;;1999.90;999.90;;;;;;;0.11;100.00;103311.81;10333239;28;20512;-63
2024/01/11 15:53:14;;;;;;;1999.90;999.90;;;;;;;0.20;100.00;103316.31;10333397;28;20125;-64
2024/01/11 15:58:17;;;;;;;1999.90;999.90;;;;;;;0.32;100.00;103304.63;10333254;28;20058;-63
2024/01/11 16:03:19;;;;;;;1999.90;999.90;;;;;;;0.31;100.00;103312.31;10332922;28;20394;-63
2024/01/11 16:08:22;;;;;;;1999.90;999.90;;;;;;;0.35;100.00;103314.13;10333626;28;20137;-63
2024/01/11 16:13:24;;;;;;;1999.90;999.90;;;;;;;0.12;100.00;103311.84;10332891;28;20042;-62
2024/01/11 16:18:27;;;;;;;1999.90;999.90;;;;;;;0.27;100.00;103311.38;10332744;28;20055;-63
2024/01/11 16:23:31;;;;;;;1999.90;999.90;;;;;;;0.23;100.00;103306.97;10333909;28;20053;-63
2024/01/11 16:28:34;;;;;;;1999.90;999.90;;;;;;;0.11;100.00;103302.34;10340224;28;20436;-63
2024/01/11 16:33:36;;;;;;;1999.90;999.90;;;;;;;0.04;100.00;103318.50;10340164;28;20105;-63
2024/01/11 16:38:38;;;;;;;1999.90;999.90;;;;;;;0.31;100.00;103310.59;10339600;28;20050;-63
2024/01/11 16:43:43;;;;;;;1999.90;999.90;;;;;;;0.18;100.00;103314.59;10339692;28;20078;-63
2024/01/11 16:48:45;;;;;;;1999.90;999.90;;;;;;;0.11;100.00;103322.09;10339933;28;20046;-63
2024/01/11 16:53:48;;;;;;;1999.90;999.90;;;;;;;0.20;100.00;103317.19;10339014;28;20053;-63
2024/01/11 16:58:50;;;;;;;1999.90;999.90;;;;;;;0.20;100.00;103314.59;10339253;28;20134;-63
2024/01/11 17:03:52;;;;;;;1999.90;999.90;;;;;;;0.27;100.00;103308.81;10337650;28;20056;-64
2024/01/11 17:08:55;;;;;;;1999.90;999.90;;;;;;;0.00;100.00;103319.25;10337519;28;20102;-64
2024/01/11 17:13:58;;;;;;;1999.90;999.90;;;;;;;0.25;100.00;103319.88;10338386;28;20058;-63
2024/01/11 17:19:00;;;;;;;1999.90;999.90;;;;;;;0.31;100.00;103320.91;10337009;28;20486;-63
2024/01/11 17:24:03;;;;;;;1999.90;999.90;;;;;;;0.50;100.00;103298.19;10337787;28;20070;-64
2024/01/11 17:29:05;;;;;;;1999.90;999.90;;;;;;;0.32;100.00;103299.47;10337812;28;20060;-63
2024/01/11 17:34:08;;;;;;;1999.90;999.90;;;;;;;0.35;100.00;103289.25;10336316;28;20084;-63
2024/01/11 17:39:10;;;;;;;1999.90;999.90;;;;;;;0.17;100.00;103304.25;10337252;28;20383;-63
2024/01/11 17:44:13;;;;;;;1999.90;999.90;;;;;;;0.11;100.00;103301.50;10335959;28;20053;-64
2024/01/11 17:49:16;;;;;;;1999.90;999.90;;;;;;;0.20;100.00;103311.16;10337117;28;20058;-63
2024/01/11 17:54:18;;;;;;;1999.90;999.90;;;;;;;0.30;100.00;103316.63;10337119;28;20056;-63
2024/01/11 17:59:21;;;;;;;1999.90;999.90;;;;;;;0.27;100.00;103311.38;10336806;28;20050;-64
2024/01/11 18:04:24;;;;;;;1999.90;999.90;;;;;;;0.29;100.00;103307.13;10335141;28;20078;-64
2024/01/11 18:09:26;;;;;;;1999.90;999.90;;;;;;;-0.22;100.00;103299.75;10336132;28;20113;-63
2024/01/11 18:14:29;;;;;;;1999.90;999.90;;;;;;;0.01;100.00;103297.81;10335999;28;20046;-64
2024/01/11 18:19:31;;;;;;;1999.90;999.90;;;;;;;0.32;100.00;103301.16;10335827;28;20516;-63
2024/01/11 18:24:34;;;;;;;1999.90;999.90;;;;;;;0.10;100.00;103292.00;10335546;28;20089;-64
2024/01/11 18:29:36;;;;;;;1999.90;999.90;;;;;;;-0.02;100.00;103310.59;10335370;28;20055;-63
2024/01/11 18:34:39;;;;;;;1999.90;999.90;;;;;;;0.44;100.00;103304.06;10335479;28;20129;-63
2024/01/11 18:39:45;;;;;;;1999.90;999.90;;;;;;;0.14;100.00;103301.59;10335061;28;20266;-64
2024/01/11 18:44:47;;;;;;;1999.90;999.90;;;;;;;0.04;100.00;103297.88;10335247;28;20077;-64
2024/01/11 18:49:49;;;;;;;1999.90;999.90;;;;;;;-0.01;100.00;103295.19;10334172;28;20050;-64
2024/01/11 18:54:52;;;;;;;1999.90;999.90;;;;;;;0.16;100.00;103293.03;10333602;28;20054;-63
2024/01/11 19:00:02;;;;;;;1999.90;999.90;;;;;;;0.38;100.00;103282.44;10333395;28;20049;-64
2024/01/11 19:05:05;;;;;;;1999.90;999.90;;;;;;;0.52;100.00;103284.50;10334212;28;20054;-63
2024/01/11 19:10:09;;;;;;;1999.90;999.90;;;;;;;0.10;100.00;103300.63;10334088;28;20108;-63
2024/01/11 19:15:12;;;;;;;1999.90;999.90;;;;;;;0.23;100.00;103285.47;10333959;28;20088;-63
2024/01/11 19:20:14;;;;;;;1999.90;999.90;;;;;;;0.63;100.00;103284.75;10333725;28;20553;-64
2024/01/11 19:25:17;;;;;;;1999.90;999.90;;;;;;;0.26;100.00;103298.44;10347966;23;20501;-64
2024/01/11 19:30:19;;;;;;;1999.90;999.90;;;;;;;0.15;100.00;103309.34;10333747;28;20042;-64
2024/01/11 19:35:22;;;;;;;1999.90;999.90;;;;;;;0.38;100.00;103313.34;10333736;28;20057;-64
2024/01/11 19:40:25;;;;;;;1999.90;999.90;;;;;;;0.65;100.00;103306.28;10333376;28;20125;-64
2024/01/11 19:45:27;;;;;;;1999.90;999.90;;;;;;;0.50;100.00;103300.75;10333576;28;20105;-64
2024/01/11 19:50:32;;;;;;;1999.90;999.90;;;;;;;0.29;100.00;103312.28;10333295;28;20050;-64
2024/01/11 19:55:35;;;;;;;1999.90;999.90;;;;;;;0.48;100.00;103307.59;10332417;28;20054;-64
2024/01/11 20:00:40;;;;;;;1999.90;999.90;;;;;;;0.52;100.00;103322.28;10339379;28;20125;-64
2024/01/11 20:05:43;;;;;;;1999.90;999.90;;;;;;;0.43;100.00;103319.50;10341016;28;20047;-64
2024/01/11 20:10:46;;;;;;;1999.90;999.90;;;;;;;0.33;100.00;103326.13;10340980;28;20056;-64
2024/01/11 20:15:48;;;;;;;1999.90;999.90;;;;;;;0.27;100.00;103328.53;10340634;28;20125;-64
2024/01/11 20:20:51;;;;;;;1999.90;999.90;;;;;;;0.27;100.00;103318.22;10340386;28;20569;-64
2024/01/11 20:25:54;;;;;;;1999.90;999.90;;;;;;;0.63;100.00;103320.84;10338681;28;20457;-64
2024/01/11 20:30:57;;;;;;;1999.90;999.90;;;;;;;0.49;100.00;103327.41;10340297;28;20056;-64
2024/01/11 20:36:02;;;;;;;1999.90;999.90;;;;;;;0.51;100.00;103344.63;10340035;28;20058;-64
2024/01/11 20:41:09;;;;;;;1999.90;999.90;;;;;;;0.64;100.00;103348.41;10339658;28;20449;-64
2024/01/11 20:46:13;;;;;;;1999.90;999.90;;;;;;;0.69;100.00;103346.81;10339484;28;20498;-64
2024/01/11 20:51:19;;;;;;;1999.90;999.90;;;;;;;0.46;100.00;103337.63;10339350;28;20077;-64
2024/01/11 20:56:22;;;;;;;1999.90;999.90;;;;;;;0.81;100.00;103335.91;10322391;28;20531;-64
2024/01/11 21:01:24;;;;;;;1999.90;999.90;;;;;;;0.42;100.00;103336.69;10338878;28;20054;-64
2024/01/11 21:06:27;;;;;;;1999.90;999.90;;;;;;;0.88;100.00;103345.53;10338965;28;20101;-64
2024/01/11 21:11:29;;;;;;;1999.90;999.90;;;;;;;0.78;100.00;103342.72;10337907;28;20397;-64
2024/01/11 21:16:32;;;;;;;1999.90;999.90;;;;;;;0.77;100.00;103333.22;10338332;28;20090;-64
2024/01/11 21:21:39;;;;;;;1999.90;999.90;;;;;;;0.80;100.00;103331.56;10338304;28;20141;-64
2024/01/11 21:26:45;;;;;;;1999.90;999.90;;;;;;;0.51;100.00;103343.75;10320489;28;20560;-64
2024/01/11 21:31:47;;;;;;;1999.90;999.90;;;;;;;0.55;100.00;103328.41;10337892;28;20481;-64
2024/01/11 21:36:49;;;;;;;1999.90;999.90;;;;;;;0.30;100.00;103339.81;10337430;28;20051;-64
2024/01/11 21:41:52;;;;;;;1999.90;999.90;;;;;;;0.38;100.00;103336.56;10337657;28;20112;-64
2024/01/11 21:46:54;;;;;;;1999.90;999.90;;;;;;;0.68;100.00;103327.00;10337196;28;20406;-64
2024/01/11 21:51:57;;;;;;;1999.90;999.90;;;;;;;0.38;100.00;103331.41;10337065;28;20051;-64
2024/01/11 21:56:59;;;;;;;1999.90;999.90;;;;;;;0.66;100.00;103331.25;10337044;28;20051;-64